Randolph, Missouri
Current Conditions -  °F | °C
As of 3:54 AM on Sunday 25 Jan 2015 (Local Time) from KMKC Reporting Station
Scattered Clouds Scattered Clouds  
Wind Chill: 43°   Ceiling: Unl
Heat Index: 48°   Visibility: 10mi
Dew Point: 39°   Wind: 10mph
Humidity: 71%   Direction: 290°WNW
Pressure: 29.63"   Gusts: 20mph
Location:  39.1628°N, 94.4478°W
Report Text: KMKC 250954Z 29009G17KT 10SM SCT040 09/04 A2963 RMK AO2 SLP033 T00890039
Loading
Personal Weather Stations






























Interactive Weather Map New forecast layout! Learn more

10-Day Weather Forecast

Advertisements
Track Severe Weather on mobile